createdAt,value
2022-07-29T00:02:12.641Z,91.11
2022-07-29T00:04:40.017Z,91.66
2022-07-29T00:07:07.595Z,90.40
2022-07-29T00:09:44.881Z,91.23
2022-07-29T00:12:26.355Z,90.27
2022-07-29T00:14:58.043Z,88.90
2022-07-29T00:17:25.943Z,89.82
2022-07-29T00:19:53.303Z,89.83
2022-07-29T00:22:21.091Z,90.16
2022-07-29T00:24:49.655Z,95.23
2022-07-29T00:27:17.361Z,91.98
2022-07-29T00:29:44.816Z,93.58
2022-07-29T00:32:12.142Z,92.52
2022-07-29T00:34:57.744Z,94.48
2022-07-29T00:37:25.323Z,95.74
2022-07-29T00:39:52.673Z,99.37
2022-07-29T00:42:20.028Z,100.00
2022-07-29T00:44:47.500Z,100.00
2022-07-29T00:47:15.061Z,100.00
2022-07-29T00:49:42.772Z,100.00
2022-07-29T00:52:11.147Z,100.00
2022-07-29T00:54:44.483Z,100.00
2022-07-29T00:57:15.748Z,100.00
2022-07-29T00:59:43.094Z,100.00
2022-07-29T01:02:10.622Z,100.00
2022-07-29T01:04:40.448Z,100.00
2022-07-29T01:07:08.137Z,100.00
2022-07-29T01:09:45.714Z,100.00
2022-07-29T01:12:16.337Z,100.00
2022-07-29T01:14:46.343Z,100.00
2022-07-29T01:17:25.816Z,100.00
2022-07-29T01:20:04.507Z,100.00
2022-07-29T01:22:34.816Z,100.00
2022-07-29T01:25:18.822Z,100.00
2022-07-29T01:27:52.525Z,100.00
2022-07-29T01:30:20.410Z,100.00
2022-07-29T01:32:56.090Z,100.00
2022-07-29T01:35:29.130Z,100.00
2022-07-29T01:38:06.468Z,100.00
2022-07-29T01:40:36.759Z,100.00
2022-07-29T01:43:10.362Z,100.00
2022-07-29T01:45:42.826Z,100.00
2022-07-29T01:48:28.615Z,100.00
2022-07-29T01:51:04.853Z,100.00
2022-07-29T01:53:37.965Z,100.00
2022-07-29T01:56:07.776Z,100.00
2022-07-29T01:58:43.239Z,100.00
2022-07-29T02:01:14.854Z,100.00
2022-07-29T02:03:46.093Z,100.00
2022-07-29T02:06:22.210Z,100.00
2022-07-29T02:08:53.883Z,100.00
2022-07-29T02:11:21.193Z,100.00
2022-07-29T02:13:49.974Z,100.00
2022-07-29T02:16:20.145Z,100.00
2022-07-29T02:18:49.300Z,100.00
2022-07-29T02:21:21.199Z,100.00
2022-07-29T02:23:50.852Z,100.00
2022-07-29T02:26:20.102Z,100.00
2022-07-29T02:28:48.404Z,100.00
2022-07-29T02:31:18.323Z,100.00
2022-07-29T02:33:46.897Z,100.00
2022-07-29T02:36:17.120Z,100.00
2022-07-29T02:38:54.399Z,100.00
2022-07-29T02:41:25.358Z,100.00
2022-07-29T02:43:56.012Z,100.00
2022-07-29T02:46:30.365Z,100.00
2022-07-29T02:49:08.102Z,100.00
2022-07-29T02:51:46.197Z,100.00
2022-07-29T02:54:31.599Z,100.00
2022-07-29T02:57:02.501Z,100.00
2022-07-29T02:59:32.000Z,100.00
2022-07-29T03:02:00.316Z,100.00
2022-07-29T03:04:29.613Z,100.00
2022-07-29T03:06:57.939Z,100.00
2022-07-29T03:09:26.424Z,100.00
2022-07-29T03:11:56.965Z,100.00
2022-07-29T03:14:24.394Z,100.00
2022-07-29T03:16:52.508Z,100.00
2022-07-29T03:19:21.239Z,100.00
2022-07-29T03:21:48.908Z,100.00
2022-07-29T03:24:29.446Z,100.00
2022-07-29T03:26:58.801Z,100.00
2022-07-29T03:29:33.425Z,100.00
2022-07-29T03:32:08.352Z,100.00
2022-07-29T03:34:37.450Z,100.00
2022-07-29T03:37:05.346Z,100.00
2022-07-29T03:39:34.176Z,100.00
2022-07-29T03:42:02.157Z,100.00
2022-07-29T03:44:30.321Z,100.00
2022-07-29T03:47:03.176Z,100.00
2022-07-29T03:49:31.583Z,100.00
2022-07-29T03:51:59.188Z,100.00
2022-07-29T03:54:26.933Z,100.00
2022-07-29T03:56:55.871Z,100.00
2022-07-29T03:59:23.614Z,100.00
2022-07-29T04:01:51.352Z,100.00
2022-07-29T04:04:19.377Z,100.00
2022-07-29T04:06:49.473Z,100.00
2022-07-29T04:09:16.819Z,100.00
2022-07-29T04:12:03.451Z,100.00
2022-07-29T04:14:34.499Z,100.00
2022-07-29T04:17:02.600Z,100.00
2022-07-29T04:19:30.088Z,100.00
2022-07-29T04:22:00.804Z,100.00
2022-07-29T04:24:30.875Z,100.00
2022-07-29T04:26:58.295Z,100.00
2022-07-29T04:29:25.821Z,100.00
2022-07-29T04:31:53.184Z,100.00
2022-07-29T04:34:21.247Z,100.00
2022-07-29T04:36:48.773Z,100.00
2022-07-29T04:39:22.155Z,100.00
2022-07-29T04:41:56.368Z,100.00
2022-07-29T04:44:27.675Z,100.00
2022-07-29T04:46:59.449Z,100.00
2022-07-29T04:49:27.120Z,100.00
2022-07-29T04:51:57.586Z,100.00
2022-07-29T04:54:25.639Z,100.00
2022-07-29T04:56:55.090Z,100.00
2022-07-29T04:59:22.641Z,100.00
2022-07-29T05:01:50.109Z,100.00
2022-07-29T05:04:20.755Z,100.00
2022-07-29T05:06:48.593Z,100.00
2022-07-29T05:09:16.146Z,100.00
2022-07-29T05:11:43.591Z,100.00
2022-07-29T05:14:11.121Z,100.00
2022-07-29T05:16:40.251Z,100.00
2022-07-29T05:19:10.916Z,100.00
2022-07-29T05:21:41.755Z,100.00
2022-07-29T05:24:09.112Z,100.00
2022-07-29T05:26:36.596Z,100.00
2022-07-29T05:29:03.942Z,100.00
2022-07-29T05:31:33.065Z,100.00
2022-07-29T05:34:00.650Z,100.00
2022-07-29T05:36:31.309Z,100.00
2022-07-29T05:38:58.752Z,100.00
2022-07-29T05:41:26.890Z,100.00
2022-07-29T05:43:54.266Z,100.00
2022-07-29T05:46:23.922Z,100.00
2022-07-29T05:48:53.238Z,100.00
2022-07-29T05:51:22.843Z,100.00
2022-07-29T05:53:50.296Z,100.00
2022-07-29T05:56:17.670Z,100.00
2022-07-29T05:58:47.433Z,100.00
2022-07-29T06:01:14.831Z,100.00
2022-07-29T06:03:42.608Z,100.00
2022-07-29T06:06:13.023Z,100.00
2022-07-29T06:08:41.314Z,100.00
2022-07-29T06:11:11.696Z,100.00
2022-07-29T06:13:39.140Z,100.00
2022-07-29T06:16:06.510Z,100.00
2022-07-29T06:18:34.041Z,100.00
2022-07-29T06:21:01.518Z,99.40
2022-07-29T06:23:30.188Z,86.67
2022-07-29T06:25:57.920Z,80.19
2022-07-29T06:28:25.305Z,78.91
2022-07-29T06:30:52.840Z,75.50
2022-07-29T06:33:23.609Z,75.08
2022-07-29T06:35:53.402Z,71.77
2022-07-29T06:38:44.835Z,64.63
2022-07-29T06:41:17.348Z,71.06
2022-07-29T06:43:50.162Z,70.03
2022-07-29T06:46:20.811Z,61.89
2022-07-29T06:48:51.224Z,55.36
2022-07-29T06:51:23.150Z,56.68
2022-07-29T06:54:00.024Z,54.83
2022-07-29T06:56:32.571Z,56.65
2022-07-29T06:59:17.061Z,52.70
2022-07-29T07:01:44.730Z,52.18
2022-07-29T07:04:12.619Z,52.30
2022-07-29T07:06:40.285Z,52.88
2022-07-29T07:09:07.678Z,56.12
2022-07-29T07:11:38.093Z,57.16
2022-07-29T07:14:07.834Z,61.41
2022-07-29T07:16:35.169Z,66.45
2022-07-29T07:19:02.724Z,68.95
2022-07-29T07:21:31.084Z,67.27
2022-07-29T07:23:59.297Z,63.30
2022-07-29T07:26:26.895Z,62.48
2022-07-29T07:28:54.309Z,56.50
2022-07-29T07:31:21.808Z,55.54
2022-07-29T07:33:49.321Z,48.69
2022-07-29T07:36:16.858Z,44.48
2022-07-29T07:38:44.186Z,44.86
2022-07-29T07:41:11.560Z,49.00
2022-07-29T07:43:39.113Z,46.83
2022-07-29T07:46:06.541Z,45.77
2022-07-29T07:48:35.894Z,42.77
2022-07-29T07:51:04.120Z,45.92
2022-07-29T07:53:31.740Z,41.69
2022-07-29T07:56:15.475Z,43.03
2022-07-29T07:58:42.923Z,42.83
2022-07-29T08:01:10.550Z,41.36
2022-07-29T08:03:38.291Z,45.50
2022-07-29T08:06:06.000Z,41.47
2022-07-29T08:08:34.368Z,41.23
2022-07-29T08:11:06.894Z,39.44
2022-07-29T08:13:37.191Z,40.61
2022-07-29T08:16:13.980Z,42.43
2022-07-29T08:18:42.327Z,41.02
2022-07-29T08:21:09.564Z,40.86
2022-07-29T08:23:47.161Z,40.46
2022-07-29T08:26:18.688Z,38.58
2022-07-29T08:28:46.981Z,34.57
2022-07-29T08:31:15.128Z,32.96
2022-07-29T08:33:43.295Z,37.64
2022-07-29T08:36:10.855Z,31.19
2022-07-29T08:38:38.208Z,27.34
2022-07-29T08:41:05.877Z,27.16
2022-07-29T08:43:36.158Z,33.76
2022-07-29T08:46:03.555Z,35.20
2022-07-29T08:48:32.174Z,34.97
2022-07-29T08:51:00.344Z,35.32
2022-07-29T08:53:28.951Z,35.95
2022-07-29T08:55:57.108Z,34.03
2022-07-29T08:58:25.919Z,33.92
2022-07-29T09:00:58.174Z,33.19
2022-07-29T09:03:26.371Z,35.65
2022-07-29T09:05:54.154Z,35.30
2022-07-29T09:08:21.585Z,35.25
2022-07-29T09:10:51.618Z,35.63
2022-07-29T09:13:19.048Z,33.50
2022-07-29T09:15:46.495Z,34.56
2022-07-29T09:18:31.591Z,35.47
2022-07-29T09:21:17.695Z,35.60
2022-07-29T09:24:03.393Z,35.15
2022-07-29T09:26:31.873Z,33.20
2022-07-29T09:28:59.460Z,34.91
2022-07-29T09:31:37.075Z,36.17
2022-07-29T09:34:05.499Z,33.70
2022-07-29T09:36:39.418Z,33.73
2022-07-29T09:39:06.756Z,33.51
2022-07-29T09:41:47.135Z,35.58
2022-07-29T09:44:15.780Z,35.05
2022-07-29T09:47:09.473Z,35.59
2022-07-29T09:49:50.733Z,33.29
2022-07-29T09:52:18.114Z,36.42
2022-07-29T09:54:45.970Z,40.15
2022-07-29T09:57:28.640Z,40.84
2022-07-29T10:00:09.163Z,44.13
2022-07-29T10:02:45.207Z,40.84
2022-07-29T10:05:25.443Z,41.62
2022-07-29T10:07:57.559Z,43.08
2022-07-29T10:10:32.108Z,41.85
2022-07-29T10:13:06.947Z,42.26
2022-07-29T10:15:41.830Z,42.18
2022-07-29T10:18:09.644Z,44.42
2022-07-29T10:20:37.648Z,40.94
2022-07-29T10:23:05.214Z,42.47
2022-07-29T10:25:32.715Z,42.33
2022-07-29T10:28:00.144Z,43.04
2022-07-29T10:30:27.805Z,44.76
2022-07-29T10:33:19.054Z,44.10
2022-07-29T10:36:09.766Z,47.74
2022-07-29T10:38:51.545Z,43.47
2022-07-29T10:41:27.727Z,44.82
2022-07-29T10:44:03.606Z,43.22
2022-07-29T10:46:35.884Z,43.26
2022-07-29T10:49:12.321Z,42.07
2022-07-29T10:51:51.899Z,46.10
2022-07-29T10:54:20.139Z,42.23
2022-07-29T10:56:47.906Z,46.56
2022-07-29T10:59:21.728Z,45.69
2022-07-29T11:02:02.738Z,44.91
2022-07-29T11:04:47.273Z,42.69
2022-07-29T11:07:18.351Z,41.39
2022-07-29T11:10:07.394Z,40.16
2022-07-29T11:12:37.546Z,42.40
2022-07-29T11:15:19.951Z,45.13
2022-07-29T11:17:53.321Z,43.32
2022-07-29T11:20:39.168Z,42.69
2022-07-29T11:23:22.826Z,43.43
2022-07-29T11:26:09.236Z,43.04
2022-07-29T11:28:40.738Z,44.39
2022-07-29T11:31:09.494Z,45.24
2022-07-29T11:33:56.074Z,45.48
2022-07-29T11:36:28.254Z,45.31
2022-07-29T11:39:18.372Z,49.11
2022-07-29T11:41:49.528Z,50.54
2022-07-29T11:44:18.028Z,45.61
2022-07-29T11:46:48.115Z,46.37
2022-07-29T11:49:31.486Z,46.71
2022-07-29T11:52:04.312Z,46.83
2022-07-29T11:54:33.960Z,46.46
2022-07-29T11:57:20.344Z,46.02
2022-07-29T11:59:49.259Z,46.14
2022-07-29T12:02:37.575Z,46.16
2022-07-29T12:05:10.800Z,47.90
2022-07-29T12:07:39.280Z,47.32
2022-07-29T12:10:11.433Z,45.13
2022-07-29T12:12:54.654Z,44.00
2022-07-29T12:15:25.075Z,46.45
2022-07-29T12:18:13.291Z,46.93
2022-07-29T12:20:40.929Z,50.44
2022-07-29T12:23:10.080Z,49.97
2022-07-29T12:25:40.202Z,43.49
2022-07-29T12:28:10.611Z,48.35
2022-07-29T12:30:46.389Z,44.64
2022-07-29T12:33:19.459Z,50.02
2022-07-29T12:36:15.606Z,47.20
2022-07-29T12:38:44.991Z,45.84
2022-07-29T12:41:12.407Z,48.01
2022-07-29T13:14:06.980Z,44.51
2022-07-29T13:28:51.585Z,41.12
2022-07-29T13:36:14.042Z,43.73
2022-07-29T13:41:54.294Z,41.33
2022-07-29T13:44:27.922Z,43.13
2022-07-29T13:47:00.856Z,43.80
2022-07-29T14:01:36.105Z,42.43
2022-07-29T14:04:05.269Z,42.57
2022-07-29T14:23:38.467Z,44.59
2022-07-29T14:26:39.826Z,44.98
2022-07-29T14:29:22.954Z,45.72
2022-07-29T14:32:06.023Z,45.03
2022-07-29T14:34:36.229Z,46.84
2022-07-29T14:37:07.129Z,45.86
2022-07-29T14:39:43.248Z,47.11
2022-07-29T14:42:46.165Z,45.26
2022-07-29T14:45:20.562Z,44.65
2022-07-29T14:47:55.123Z,47.87
2022-07-29T14:50:33.451Z,46.85
2022-07-29T14:53:08.105Z,46.74
2022-07-29T14:55:37.140Z,48.37
2022-07-29T15:02:46.043Z,50.93
2022-07-29T15:05:30.743Z,50.20
2022-07-29T15:08:21.139Z,52.29
2022-07-29T15:18:40.421Z,53.66
2022-07-29T15:21:21.864Z,52.09
2022-07-29T15:23:51.445Z,53.43
2022-07-29T15:26:23.633Z,56.25
2022-07-29T15:28:56.302Z,56.38
2022-07-29T15:31:34.008Z,54.06
2022-07-29T15:34:19.452Z,55.24
2022-07-29T15:37:02.309Z,54.12
2022-07-29T15:39:31.209Z,56.43
2022-07-29T15:42:01.704Z,54.56
2022-07-29T15:44:40.849Z,55.00
2022-07-29T15:47:16.033Z,53.80
2022-07-29T15:49:50.617Z,53.93
2022-07-29T15:52:25.054Z,53.21
2022-07-29T15:55:35.880Z,53.76
2022-07-29T16:50:43.328Z,100.00
2022-07-29T16:56:25.191Z,100.00
2022-07-29T17:07:54.599Z,98.59
2022-07-29T17:27:00.942Z,100.00
2022-07-29T23:54:11.820Z,100.00
